sensor_id;sensor_type;location;lat;lon;timestamp;temperature;humidity
7159;DHT22;63175;52.374;13.132;2023-11-19T00:01:01;4.80;99.90
7159;DHT22;63175;52.374;13.132;2023-11-19T00:03:31;4.80;99.90
7159;DHT22;63175;52.374;13.132;2023-11-19T00:05:59;4.80;99.90
7159;DHT22;63175;52.374;13.132;2023-11-19T00:08:25;4.90;99.90
7159;DHT22;63175;52.374;13.132;2023-11-19T00:10:52;4.90;99.90
7159;DHT22;63175;52.374;13.132;2023-11-19T00:13:20;4.90;99.90
7159;DHT22;63175;52.374;13.132;2023-11-19T00:15:48;4.90;99.90
7159;DHT22;63175;52.374;13.132;2023-11-19T00:18:15;4.90;99.90
7159;DHT22;63175;52.374;13.132;2023-11-19T00:20:42;4.90;99.90
7159;DHT22;63175;52.374;13.132;2023-11-19T00:23:10;4.90;99.90
7159;DHT22;63175;52.374;13.132;2023-11-19T00:25:37;4.90;99.90
7159;DHT22;63175;52.374;13.132;2023-11-19T00:28:04;5.00;99.90
7159;DHT22;63175;52.374;13.132;2023-11-19T00:30:33;5.00;99.90
7159;DHT22;63175;52.374;13.132;2023-11-19T00:32:59;5.00;99.90
7159;DHT22;63175;52.374;13.132;2023-11-19T00:35:26;5.00;99.90
7159;DHT22;63175;52.374;13.132;2023-11-19T00:37:53;5.00;99.90
7159;DHT22;63175;52.374;13.132;2023-11-19T00:40:20;5.00;99.90
7159;DHT22;63175;52.374;13.132;2023-11-19T00:42:48;5.00;99.90
7159;DHT22;63175;52.374;13.132;2023-11-19T00:45:15;5.00;99.90
7159;DHT22;63175;52.374;13.132;2023-11-19T00:47:44;5.00;99.90
7159;DHT22;63175;52.374;13.132;2023-11-19T00:50:11;5.00;99.90
7159;DHT22;63175;52.374;13.132;2023-11-19T00:52:38;5.10;99.90
7159;DHT22;63175;52.374;13.132;2023-11-19T00:55:06;5.00;99.90
7159;DHT22;63175;52.374;13.132;2023-11-19T00:57:33;5.10;99.90
7159;DHT22;63175;52.374;13.132;2023-11-19T01:00:00;5.10;99.90
7159;DHT22;63175;52.374;13.132;2023-11-19T01:02:28;5.10;99.90
7159;DHT22;63175;52.374;13.132;2023-11-19T01:04:56;5.10;99.90
7159;DHT22;63175;52.374;13.132;2023-11-19T01:07:23;5.10;99.90
7159;DHT22;63175;52.374;13.132;2023-11-19T01:09:52;5.10;99.90
7159;DHT22;63175;52.374;13.132;2023-11-19T01:12:19;5.10;99.90
7159;DHT22;63175;52.374;13.132;2023-11-19T01:14:46;5.10;99.90
7159;DHT22;63175;52.374;13.132;2023-11-19T01:17:13;5.10;99.90
7159;DHT22;63175;52.374;13.132;2023-11-19T01:19:40;5.10;99.90
7159;DHT22;63175;52.374;13.132;2023-11-19T01:22:08;5.10;99.90
7159;DHT22;63175;52.374;13.132;2023-11-19T01:24:35;5.10;99.90
7159;DHT22;63175;52.374;13.132;2023-11-19T01:27:02;5.10;99.90
7159;DHT22;63175;52.374;13.132;2023-11-19T01:29:28;5.10;99.90
7159;DHT22;63175;52.374;13.132;2023-11-19T01:31:55;5.20;99.90
7159;DHT22;63175;52.374;13.132;2023-11-19T01:34:22;5.20;99.90
7159;DHT22;63175;52.374;13.132;2023-11-19T01:36:49;5.10;99.90
7159;DHT22;63175;52.374;13.132;2023-11-19T01:39:17;5.10;99.90
7159;DHT22;63175;52.374;13.132;2023-11-19T01:41:45;5.10;99.90
7159;DHT22;63175;52.374;13.132;2023-11-19T01:44:12;5.10;99.90
7159;DHT22;63175;52.374;13.132;2023-11-19T01:46:41;5.10;99.90
7159;DHT22;63175;52.374;13.132;2023-11-19T01:49:08;5.10;99.90
7159;DHT22;63175;52.374;13.132;2023-11-19T01:51:38;5.10;99.90
7159;DHT22;63175;52.374;13.132;2023-11-19T01:54:06;5.10;99.90
7159;DHT22;63175;52.374;13.132;2023-11-19T01:56:35;5.10;99.90
7159;DHT22;63175;52.374;13.132;2023-11-19T01:59:03;5.10;99.90
7159;DHT22;63175;52.374;13.132;2023-11-19T02:01:30;5.10;99.90
7159;DHT22;63175;52.374;13.132;2023-11-19T02:04:01;5.20;99.90
7159;DHT22;63175;52.374;13.132;2023-11-19T02:06:28;5.20;99.90
7159;DHT22;63175;52.374;13.132;2023-11-19T02:08:55;5.10;99.90
7159;DHT22;63175;52.374;13.132;2023-11-19T02:11:22;5.20;99.90
7159;DHT22;63175;52.374;13.132;2023-11-19T02:13:50;5.20;99.90
7159;DHT22;63175;52.374;13.132;2023-11-19T02:16:17;5.20;99.90
7159;DHT22;63175;52.374;13.132;2023-11-19T02:18:44;5.20;99.90
7159;DHT22;63175;52.374;13.132;2023-11-19T02:21:11;5.20;99.90
7159;DHT22;63175;52.374;13.132;2023-11-19T02:23:40;5.20;99.90
7159;DHT22;63175;52.374;13.132;2023-11-19T02:26:14;5.20;99.90
7159;DHT22;63175;52.374;13.132;2023-11-19T02:28:45;5.20;99.90
7159;DHT22;63175;52.374;13.132;2023-11-19T02:31:12;5.20;99.90
7159;DHT22;63175;52.374;13.132;2023-11-19T02:33:39;5.20;99.90
7159;DHT22;63175;52.374;13.132;2023-11-19T02:36:07;5.20;99.90
7159;DHT22;63175;52.374;13.132;2023-11-19T02:38:35;5.20;99.90
7159;DHT22;63175;52.374;13.132;2023-11-19T02:41:03;5.20;99.90
7159;DHT22;63175;52.374;13.132;2023-11-19T02:43:31;5.20;99.90
7159;DHT22;63175;52.374;13.132;2023-11-19T02:46:00;5.20;99.90
7159;DHT22;63175;52.374;13.132;2023-11-19T02:48:27;5.20;99.90
7159;DHT22;63175;52.374;13.132;2023-11-19T02:50:54;5.20;99.90
7159;DHT22;63175;52.374;13.132;2023-11-19T02:53:23;5.20;99.90
7159;DHT22;63175;52.374;13.132;2023-11-19T02:55:53;5.20;99.90
7159;DHT22;63175;52.374;13.132;2023-11-19T02:58:26;5.20;99.90
7159;DHT22;63175;52.374;13.132;2023-11-19T03:00:54;5.20;99.90
7159;DHT22;63175;52.374;13.132;2023-11-19T03:03:27;5.20;99.90
7159;DHT22;63175;52.374;13.132;2023-11-19T03:06:04;5.20;99.90
7159;DHT22;63175;52.374;13.132;2023-11-19T03:08:31;5.20;99.90
7159;DHT22;63175;52.374;13.132;2023-11-19T03:10:58;5.20;99.90
7159;DHT22;63175;52.374;13.132;2023-11-19T03:13:25;5.30;99.90
7159;DHT22;63175;52.374;13.132;2023-11-19T03:15:52;5.30;99.90
7159;DHT22;63175;52.374;13.132;2023-11-19T03:18:19;5.20;99.90
7159;DHT22;63175;52.374;13.132;2023-11-19T03:20:48;5.20;99.90
7159;DHT22;63175;52.374;13.132;2023-11-19T03:23:15;5.20;99.90
7159;DHT22;63175;52.374;13.132;2023-11-19T03:25:42;5.20;99.90
7159;DHT22;63175;52.374;13.132;2023-11-19T03:28:09;5.20;99.90
7159;DHT22;63175;52.374;13.132;2023-11-19T03:30:36;5.20;99.90
7159;DHT22;63175;52.374;13.132;2023-11-19T03:33:03;5.20;99.90
7159;DHT22;63175;52.374;13.132;2023-11-19T03:35:30;5.20;99.90
7159;DHT22;63175;52.374;13.132;2023-11-19T03:38:00;5.20;99.90
7159;DHT22;63175;52.374;13.132;2023-11-19T03:40:28;5.20;99.90
7159;DHT22;63175;52.374;13.132;2023-11-19T03:42:56;5.20;99.90
7159;DHT22;63175;52.374;13.132;2023-11-19T03:45:22;5.00;99.90
7159;DHT22;63175;52.374;13.132;2023-11-19T03:47:50;5.20;99.90
7159;DHT22;63175;52.374;13.132;2023-11-19T03:50:17;5.10;99.90
7159;DHT22;63175;52.374;13.132;2023-11-19T03:52:45;5.10;99.90
7159;DHT22;63175;52.374;13.132;2023-11-19T03:55:13;5.10;99.90
7159;DHT22;63175;52.374;13.132;2023-11-19T03:57:40;5.10;99.90
7159;DHT22;63175;52.374;13.132;2023-11-19T04:00:08;5.10;99.90
7159;DHT22;63175;52.374;13.132;2023-11-19T04:02:35;5.10;99.90
7159;DHT22;63175;52.374;13.132;2023-11-19T04:05:03;5.10;99.90
7159;DHT22;63175;52.374;13.132;2023-11-19T04:07:30;5.10;99.90
7159;DHT22;63175;52.374;13.132;2023-11-19T04:09:57;5.10;99.90
7159;DHT22;63175;52.374;13.132;2023-11-19T04:12:26;5.10;99.90
7159;DHT22;63175;52.374;13.132;2023-11-19T04:14:52;5.10;99.90
7159;DHT22;63175;52.374;13.132;2023-11-19T04:17:19;5.10;99.90
7159;DHT22;63175;52.374;13.132;2023-11-19T04:19:46;5.10;99.90
7159;DHT22;63175;52.374;13.132;2023-11-19T04:22:13;5.10;99.90
7159;DHT22;63175;52.374;13.132;2023-11-19T04:24:40;5.10;99.90
7159;DHT22;63175;52.374;13.132;2023-11-19T04:27:09;5.10;99.90
7159;DHT22;63175;52.374;13.132;2023-11-19T04:29:37;5.10;99.90
7159;DHT22;63175;52.374;13.132;2023-11-19T04:32:05;5.10;99.90
7159;DHT22;63175;52.374;13.132;2023-11-19T04:34:32;5.10;99.90
7159;DHT22;63175;52.374;13.132;2023-11-19T04:36:59;5.10;99.90
7159;DHT22;63175;52.374;13.132;2023-11-19T04:39:27;5.10;99.90
7159;DHT22;63175;52.374;13.132;2023-11-19T04:41:54;5.10;99.90
7159;DHT22;63175;52.374;13.132;2023-11-19T04:44:21;5.10;99.90
7159;DHT22;63175;52.374;13.132;2023-11-19T04:46:49;5.10;99.90
7159;DHT22;63175;52.374;13.132;2023-11-19T04:49:16;5.10;99.90
7159;DHT22;63175;52.374;13.132;2023-11-19T04:51:45;5.20;99.90
7159;DHT22;63175;52.374;13.132;2023-11-19T04:54:12;5.20;99.90
7159;DHT22;63175;52.374;13.132;2023-11-19T04:56:40;5.20;99.90
7159;DHT22;63175;52.374;13.132;2023-11-19T04:59:07;5.30;99.90
7159;DHT22;63175;52.374;13.132;2023-11-19T05:01:34;5.30;99.90
7159;DHT22;63175;52.374;13.132;2023-11-19T05:04:03;5.20;99.90
7159;DHT22;63175;52.374;13.132;2023-11-19T05:06:30;5.20;99.90
7159;DHT22;63175;52.374;13.132;2023-11-19T05:08:59;5.20;99.90
7159;DHT22;63175;52.374;13.132;2023-11-19T05:11:29;5.20;99.90
7159;DHT22;63175;52.374;13.132;2023-11-19T05:13:55;5.20;99.90
7159;DHT22;63175;52.374;13.132;2023-11-19T05:16:22;5.20;99.90
7159;DHT22;63175;52.374;13.132;2023-11-19T05:18:49;5.20;99.90
7159;DHT22;63175;52.374;13.132;2023-11-19T05:21:17;5.20;99.90
7159;DHT22;63175;52.374;13.132;2023-11-19T05:23:44;5.20;99.90
7159;DHT22;63175;52.374;13.132;2023-11-19T05:26:18;5.20;99.90
7159;DHT22;63175;52.374;13.132;2023-11-19T05:28:45;5.20;99.90
7159;DHT22;63175;52.374;13.132;2023-11-19T05:31:12;5.20;99.90
7159;DHT22;63175;52.374;13.132;2023-11-19T05:33:39;5.20;99.90
7159;DHT22;63175;52.374;13.132;2023-11-19T05:36:06;5.20;99.90
7159;DHT22;63175;52.374;13.132;2023-11-19T05:38:36;5.20;99.90
7159;DHT22;63175;52.374;13.132;2023-11-19T05:41:03;5.20;99.90
7159;DHT22;63175;52.374;13.132;2023-11-19T05:43:30;5.20;99.90
7159;DHT22;63175;52.374;13.132;2023-11-19T05:45:57;5.20;99.90
7159;DHT22;63175;52.374;13.132;2023-11-19T05:48:25;5.20;99.90
7159;DHT22;63175;52.374;13.132;2023-11-19T05:50:52;5.20;99.90
7159;DHT22;63175;52.374;13.132;2023-11-19T05:53:20;5.20;99.90
7159;DHT22;63175;52.374;13.132;2023-11-19T05:55:48;5.20;99.90
7159;DHT22;63175;52.374;13.132;2023-11-19T05:58:23;5.20;99.90
7159;DHT22;63175;52.374;13.132;2023-11-19T06:00:51;5.20;99.90
7159;DHT22;63175;52.374;13.132;2023-11-19T06:03:18;5.20;99.90
7159;DHT22;63175;52.374;13.132;2023-11-19T06:05:44;5.20;99.90
7159;DHT22;63175;52.374;13.132;2023-11-19T06:08:12;5.20;99.90
7159;DHT22;63175;52.374;13.132;2023-11-19T06:10:40;5.20;99.90
7159;DHT22;63175;52.374;13.132;2023-11-19T06:13:08;5.20;99.90
7159;DHT22;63175;52.374;13.132;2023-11-19T06:15:37;5.20;99.90
7159;DHT22;63175;52.374;13.132;2023-11-19T06:18:03;5.20;99.90
7159;DHT22;63175;52.374;13.132;2023-11-19T06:20:32;5.30;99.90
7159;DHT22;63175;52.374;13.132;2023-11-19T06:22:59;5.30;99.90
7159;DHT22;63175;52.374;13.132;2023-11-19T06:25:27;5.30;99.90
7159;DHT22;63175;52.374;13.132;2023-11-19T06:27:54;5.30;99.90
7159;DHT22;63175;52.374;13.132;2023-11-19T06:30:22;5.30;99.90
7159;DHT22;63175;52.374;13.132;2023-11-19T06:32:49;5.30;99.90
7159;DHT22;63175;52.374;13.132;2023-11-19T06:35:15;5.30;99.90
7159;DHT22;63175;52.374;13.132;2023-11-19T06:37:43;5.30;99.90
7159;DHT22;63175;52.374;13.132;2023-11-19T06:40:10;5.40;99.90
7159;DHT22;63175;52.374;13.132;2023-11-19T06:42:37;5.40;99.90
7159;DHT22;63175;52.374;13.132;2023-11-19T06:45:06;5.40;99.90
7159;DHT22;63175;52.374;13.132;2023-11-19T06:47:34;5.40;99.90
7159;DHT22;63175;52.374;13.132;2023-11-19T06:50:01;5.40;99.90
7159;DHT22;63175;52.374;13.132;2023-11-19T06:52:31;5.50;99.90
7159;DHT22;63175;52.374;13.132;2023-11-19T06:54:57;5.50;99.90
7159;DHT22;63175;52.374;13.132;2023-11-19T06:57:24;5.40;99.90
7159;DHT22;63175;52.374;13.132;2023-11-19T06:59:51;5.50;99.90
7159;DHT22;63175;52.374;13.132;2023-11-19T07:02:18;5.50;99.90
7159;DHT22;63175;52.374;13.132;2023-11-19T07:04:46;5.50;99.90
7159;DHT22;63175;52.374;13.132;2023-11-19T07:07:13;5.50;99.90
7159;DHT22;63175;52.374;13.132;2023-11-19T07:09:41;5.60;99.90
7159;DHT22;63175;52.374;13.132;2023-11-19T07:12:08;5.60;99.90
7159;DHT22;63175;52.374;13.132;2023-11-19T07:14:35;5.60;99.90
7159;DHT22;63175;52.374;13.132;2023-11-19T07:17:02;5.60;99.90
7159;DHT22;63175;52.374;13.132;2023-11-19T07:19:29;5.60;99.90
7159;DHT22;63175;52.374;13.132;2023-11-19T07:21:57;5.60;99.90
7159;DHT22;63175;52.374;13.132;2023-11-19T07:24:24;5.70;99.90
7159;DHT22;63175;52.374;13.132;2023-11-19T07:26:53;5.70;99.90
7159;DHT22;63175;52.374;13.132;2023-11-19T07:29:20;5.70;99.90
7159;DHT22;63175;52.374;13.132;2023-11-19T07:31:48;5.80;99.90
7159;DHT22;63175;52.374;13.132;2023-11-19T07:34:15;5.80;99.90
7159;DHT22;63175;52.374;13.132;2023-11-19T07:36:42;5.80;99.90
7159;DHT22;63175;52.374;13.132;2023-11-19T07:39:10;5.90;99.90
7159;DHT22;63175;52.374;13.132;2023-11-19T07:41:37;5.90;99.90
7159;DHT22;63175;52.374;13.132;2023-11-19T07:44:04;5.90;99.90
7159;DHT22;63175;52.374;13.132;2023-11-19T07:46:32;6.00;99.90
7159;DHT22;63175;52.374;13.132;2023-11-19T07:48:58;6.00;99.90
7159;DHT22;63175;52.374;13.132;2023-11-19T07:51:25;6.00;99.90
7159;DHT22;63175;52.374;13.132;2023-11-19T07:53:52;6.10;99.90
7159;DHT22;63175;52.374;13.132;2023-11-19T07:56:20;6.10;99.90
7159;DHT22;63175;52.374;13.132;2023-11-19T07:58:47;6.20;99.90
7159;DHT22;63175;52.374;13.132;2023-11-19T08:01:15;6.20;99.90
7159;DHT22;63175;52.374;13.132;2023-11-19T08:03:42;6.20;99.90
7159;DHT22;63175;52.374;13.132;2023-11-19T08:06:09;6.30;99.90
7159;DHT22;63175;52.374;13.132;2023-11-19T08:08:37;6.30;99.90
7159;DHT22;63175;52.374;13.132;2023-11-19T08:11:04;6.30;99.90
7159;DHT22;63175;52.374;13.132;2023-11-19T08:13:33;6.30;99.90
7159;DHT22;63175;52.374;13.132;2023-11-19T08:16:00;6.40;99.90
7159;DHT22;63175;52.374;13.132;2023-11-19T08:18:26;6.40;99.90
7159;DHT22;63175;52.374;13.132;2023-11-19T08:20:53;6.50;99.90
7159;DHT22;63175;52.374;13.132;2023-11-19T08:23:22;6.50;99.90
7159;DHT22;63175;52.374;13.132;2023-11-19T08:25:51;6.60;99.90
7159;DHT22;63175;52.374;13.132;2023-11-19T08:28:17;6.60;99.90
7159;DHT22;63175;52.374;13.132;2023-11-19T08:30:46;6.70;99.90
7159;DHT22;63175;52.374;13.132;2023-11-19T08:33:13;6.70;99.90
7159;DHT22;63175;52.374;13.132;2023-11-19T08:35:40;6.80;99.90
7159;DHT22;63175;52.374;13.132;2023-11-19T08:38:07;6.90;99.90
7159;DHT22;63175;52.374;13.132;2023-11-19T08:40:34;7.00;99.90
7159;DHT22;63175;52.374;13.132;2023-11-19T08:43:01;7.10;99.90
7159;DHT22;63175;52.374;13.132;2023-11-19T08:45:27;7.20;99.90
7159;DHT22;63175;52.374;13.132;2023-11-19T08:47:56;7.20;99.90
7159;DHT22;63175;52.374;13.132;2023-11-19T08:50:23;7.20;99.90
7159;DHT22;63175;52.374;13.132;2023-11-19T08:52:50;7.30;99.90
7159;DHT22;63175;52.374;13.132;2023-11-19T08:55:17;7.30;99.90
7159;DHT22;63175;52.374;13.132;2023-11-19T08:57:44;7.40;99.90
7159;DHT22;63175;52.374;13.132;2023-11-19T09:00:11;7.40;99.90
7159;DHT22;63175;52.374;13.132;2023-11-19T09:02:39;7.40;99.90
7159;DHT22;63175;52.374;13.132;2023-11-19T09:05:08;7.50;99.90
7159;DHT22;63175;52.374;13.132;2023-11-19T09:07:35;7.50;99.90
7159;DHT22;63175;52.374;13.132;2023-11-19T09:10:02;7.60;99.90
7159;DHT22;63175;52.374;13.132;2023-11-19T09:12:30;7.70;99.90
7159;DHT22;63175;52.374;13.132;2023-11-19T09:14:57;7.80;99.90
7159;DHT22;63175;52.374;13.132;2023-11-19T09:17:24;7.90;99.90
7159;DHT22;63175;52.374;13.132;2023-11-19T09:19:51;8.00;99.90
7159;DHT22;63175;52.374;13.132;2023-11-19T09:22:19;8.10;99.90
7159;DHT22;63175;52.374;13.132;2023-11-19T09:24:46;8.50;99.90
7159;DHT22;63175;52.374;13.132;2023-11-19T09:27:13;9.00;99.90
7159;DHT22;63175;52.374;13.132;2023-11-19T09:29:40;9.60;99.90
7159;DHT22;63175;52.374;13.132;2023-11-19T09:32:08;10.00;99.90
7159;DHT22;63175;52.374;13.132;2023-11-19T09:34:35;10.30;99.90
7159;DHT22;63175;52.374;13.132;2023-11-19T09:37:02;10.70;99.90
7159;DHT22;63175;52.374;13.132;2023-11-19T09:39:30;11.20;99.90
7159;DHT22;63175;52.374;13.132;2023-11-19T09:41:57;11.50;99.90
7159;DHT22;63175;52.374;13.132;2023-11-19T09:44:24;11.70;99.90
7159;DHT22;63175;52.374;13.132;2023-11-19T09:46:52;12.00;99.90
7159;DHT22;63175;52.374;13.132;2023-11-19T09:49:21;12.30;99.90
7159;DHT22;63175;52.374;13.132;2023-11-19T09:51:49;12.50;99.90
7159;DHT22;63175;52.374;13.132;2023-11-19T09:54:16;12.70;99.90
7159;DHT22;63175;52.374;13.132;2023-11-19T09:56:44;13.00;99.90
7159;DHT22;63175;52.374;13.132;2023-11-19T09:59:12;13.20;99.90
7159;DHT22;63175;52.374;13.132;2023-11-19T10:01:39;13.40;99.90
7159;DHT22;63175;52.374;13.132;2023-11-19T10:04:06;13.60;99.90
7159;DHT22;63175;52.374;13.132;2023-11-19T10:06:34;13.70;99.90
7159;DHT22;63175;52.374;13.132;2023-11-19T10:09:00;13.70;99.90
7159;DHT22;63175;52.374;13.132;2023-11-19T10:11:30;13.70;99.90
7159;DHT22;63175;52.374;13.132;2023-11-19T10:13:59;13.80;99.90
7159;DHT22;63175;52.374;13.132;2023-11-19T10:16:29;13.80;99.90
7159;DHT22;63175;52.374;13.132;2023-11-19T10:18:57;13.80;99.90
7159;DHT22;63175;52.374;13.132;2023-11-19T10:21:24;13.70;99.90
7159;DHT22;63175;52.374;13.132;2023-11-19T10:23:54;13.50;99.90
7159;DHT22;63175;52.374;13.132;2023-11-19T10:26:23;13.40;99.90
7159;DHT22;63175;52.374;13.132;2023-11-19T10:28:50;13.20;99.90
7159;DHT22;63175;52.374;13.132;2023-11-19T10:31:19;13.10;99.90
7159;DHT22;63175;52.374;13.132;2023-11-19T10:33:50;13.10;99.90
7159;DHT22;63175;52.374;13.132;2023-11-19T10:36:17;13.10;99.90
7159;DHT22;63175;52.374;13.132;2023-11-19T10:38:52;13.20;99.90
7159;DHT22;63175;52.374;13.132;2023-11-19T10:41:27;13.10;99.90
7159;DHT22;63175;52.374;13.132;2023-11-19T10:43:53;13.00;99.90
7159;DHT22;63175;52.374;13.132;2023-11-19T10:46:22;13.00;99.90
7159;DHT22;63175;52.374;13.132;2023-11-19T10:48:49;12.90;99.90
7159;DHT22;63175;52.374;13.132;2023-11-19T10:51:19;12.80;99.90
7159;DHT22;63175;52.374;13.132;2023-11-19T10:53:49;12.60;99.90
7159;DHT22;63175;52.374;13.132;2023-11-19T10:56:17;12.40;99.90
7159;DHT22;63175;52.374;13.132;2023-11-19T10:58:45;12.30;99.90
7159;DHT22;63175;52.374;13.132;2023-11-19T11:01:15;12.20;99.90
7159;DHT22;63175;52.374;13.132;2023-11-19T11:03:46;12.00;99.90
7159;DHT22;63175;52.374;13.132;2023-11-19T11:06:13;11.90;99.90
7159;DHT22;63175;52.374;13.132;2023-11-19T11:08:40;11.80;99.90
7159;DHT22;63175;52.374;13.132;2023-11-19T11:11:07;11.80;99.90
7159;DHT22;63175;52.374;13.132;2023-11-19T11:13:37;11.70;99.90
7159;DHT22;63175;52.374;13.132;2023-11-19T11:16:07;11.70;99.90
7159;DHT22;63175;52.374;13.132;2023-11-19T11:18:35;11.80;99.90
7159;DHT22;63175;52.374;13.132;2023-11-19T11:21:06;12.00;99.90
7159;DHT22;63175;52.374;13.132;2023-11-19T11:24:05;12.30;99.90
7159;DHT22;63175;52.374;13.132;2023-11-19T11:26:50;12.60;99.90
7159;DHT22;63175;52.374;13.132;2023-11-19T11:29:26;12.90;99.90
7159;DHT22;63175;52.374;13.132;2023-11-19T11:32:01;13.10;99.90
7159;DHT22;63175;52.374;13.132;2023-11-19T11:34:54;13.20;99.90
7159;DHT22;63175;52.374;13.132;2023-11-19T11:37:32;13.30;99.90
7159;DHT22;63175;52.374;13.132;2023-11-19T11:39:59;13.40;99.90
7159;DHT22;63175;52.374;13.132;2023-11-19T11:42:34;13.40;99.90
7159;DHT22;63175;52.374;13.132;2023-11-19T11:45:03;13.30;99.90
7159;DHT22;63175;52.374;13.132;2023-11-19T11:50:55;13.60;99.90
7159;DHT22;63175;52.374;13.132;2023-11-19T11:53:25;13.70;99.90
7159;DHT22;63175;52.374;13.132;2023-11-19T11:55:54;13.70;99.90
7159;DHT22;63175;52.374;13.132;2023-11-19T11:58:25;13.60;99.90
7159;DHT22;63175;52.374;13.132;2023-11-19T12:00:53;13.50;99.90
7159;DHT22;63175;52.374;13.132;2023-11-19T12:03:21;13.40;99.90
7159;DHT22;63175;52.374;13.132;2023-11-19T12:05:48;13.20;99.90
7159;DHT22;63175;52.374;13.132;2023-11-19T12:08:18;13.10;99.90
7159;DHT22;63175;52.374;13.132;2023-11-19T12:10:48;12.90;99.90
7159;DHT22;63175;52.374;13.132;2023-11-19T12:13:16;12.80;99.90
7159;DHT22;63175;52.374;13.132;2023-11-19T12:16:09;12.70;99.90
7159;DHT22;63175;52.374;13.132;2023-11-19T12:18:39;12.60;99.90
7159;DHT22;63175;52.374;13.132;2023-11-19T12:21:07;12.50;99.90
7159;DHT22;63175;52.374;13.132;2023-11-19T12:23:44;12.40;99.90
7159;DHT22;63175;52.374;13.132;2023-11-19T12:26:34;12.40;99.90
7159;DHT22;63175;52.374;13.132;2023-11-19T12:29:01;12.30;99.90
7159;DHT22;63175;52.374;13.132;2023-11-19T12:31:32;12.20;99.90
7159;DHT22;63175;52.374;13.132;2023-11-19T12:34:05;12.20;99.90
7159;DHT22;63175;52.374;13.132;2023-11-19T12:36:32;12.10;99.90
7159;DHT22;63175;52.374;13.132;2023-11-19T12:38:59;12.10;99.90
7159;DHT22;63175;52.374;13.132;2023-11-19T12:41:26;12.00;99.90
7159;DHT22;63175;52.374;13.132;2023-11-19T12:43:54;12.00;99.90
7159;DHT22;63175;52.374;13.132;2023-11-19T12:46:21;12.00;99.90
7159;DHT22;63175;52.374;13.132;2023-11-19T12:48:49;12.00;99.90
7159;DHT22;63175;52.374;13.132;2023-11-19T12:51:17;12.00;99.90
7159;DHT22;63175;52.374;13.132;2023-11-19T12:53:48;12.00;99.90
7159;DHT22;63175;52.374;13.132;2023-11-19T12:56:16;11.90;99.90
7159;DHT22;63175;52.374;13.132;2023-11-19T12:58:43;11.90;99.90
7159;DHT22;63175;52.374;13.132;2023-11-19T13:01:16;11.80;99.90
7159;DHT22;63175;52.374;13.132;2023-11-19T13:03:45;11.80;99.90
7159;DHT22;63175;52.374;13.132;2023-11-19T13:06:13;11.70;99.90
7159;DHT22;63175;52.374;13.132;2023-11-19T13:08:42;11.70;99.90
7159;DHT22;63175;52.374;13.132;2023-11-19T13:11:10;11.80;99.90
7159;DHT22;63175;52.374;13.132;2023-11-19T13:13:57;11.90;99.90
7159;DHT22;63175;52.374;13.132;2023-11-19T13:16:27;12.10;99.90
7159;DHT22;63175;52.374;13.132;2023-11-19T13:18:54;12.20;99.90
7159;DHT22;63175;52.374;13.132;2023-11-19T13:21:21;12.40;99.90
7159;DHT22;63175;52.374;13.132;2023-11-19T13:23:48;12.50;99.90
7159;DHT22;63175;52.374;13.132;2023-11-19T13:26:15;12.70;99.90
7159;DHT22;63175;52.374;13.132;2023-11-19T13:28:42;12.80;99.90
7159;DHT22;63175;52.374;13.132;2023-11-19T13:31:09;12.80;99.90
7159;DHT22;63175;52.374;13.132;2023-11-19T13:33:38;12.80;99.90
7159;DHT22;63175;52.374;13.132;2023-11-19T13:36:05;12.70;99.90
7159;DHT22;63175;52.374;13.132;2023-11-19T13:38:33;12.70;99.90
7159;DHT22;63175;52.374;13.132;2023-11-19T13:41:00;12.60;99.90
7159;DHT22;63175;52.374;13.132;2023-11-19T13:43:27;12.50;99.90
7159;DHT22;63175;52.374;13.132;2023-11-19T13:45:54;12.50;99.90
7159;DHT22;63175;52.374;13.132;2023-11-19T13:48:21;12.40;99.90
7159;DHT22;63175;52.374;13.132;2023-11-19T13:50:50;12.30;99.90
7159;DHT22;63175;52.374;13.132;2023-11-19T13:53:17;12.20;99.90
7159;DHT22;63175;52.374;13.132;2023-11-19T13:55:44;12.10;99.90
7159;DHT22;63175;52.374;13.132;2023-11-19T13:58:10;12.10;99.90
7159;DHT22;63175;52.374;13.132;2023-11-19T14:00:37;12.00;99.90
7159;DHT22;63175;52.374;13.132;2023-11-19T14:03:04;12.00;99.90
7159;DHT22;63175;52.374;13.132;2023-11-19T14:05:32;11.90;99.90
7159;DHT22;63175;52.374;13.132;2023-11-19T14:08:00;11.90;99.90
7159;DHT22;63175;52.374;13.132;2023-11-19T14:10:27;11.80;99.90
7159;DHT22;63175;52.374;13.132;2023-11-19T14:12:54;11.80;99.90
7159;DHT22;63175;52.374;13.132;2023-11-19T14:15:21;11.70;99.90
7159;DHT22;63175;52.374;13.132;2023-11-19T14:17:48;11.70;99.90
7159;DHT22;63175;52.374;13.132;2023-11-19T14:20:14;11.70;99.90
7159;DHT22;63175;52.374;13.132;2023-11-19T14:22:43;11.60;99.90
7159;DHT22;63175;52.374;13.132;2023-11-19T14:25:11;11.60;99.90
7159;DHT22;63175;52.374;13.132;2023-11-19T14:27:39;11.60;99.90
7159;DHT22;63175;52.374;13.132;2023-11-19T14:30:07;11.50;99.90
7159;DHT22;63175;52.374;13.132;2023-11-19T14:32:35;11.50;99.90
7159;DHT22;63175;52.374;13.132;2023-11-19T14:35:02;11.50;99.90
7159;DHT22;63175;52.374;13.132;2023-11-19T14:37:29;11.40;99.90
7159;DHT22;63175;52.374;13.132;2023-11-19T14:39:57;11.40;99.90
7159;DHT22;63175;52.374;13.132;2023-11-19T14:42:26;11.40;99.90
7159;DHT22;63175;52.374;13.132;2023-11-19T14:44:53;11.30;99.90
7159;DHT22;63175;52.374;13.132;2023-11-19T14:47:21;11.30;99.90
7159;DHT22;63175;52.374;13.132;2023-11-19T14:49:48;11.30;99.90
7159;DHT22;63175;52.374;13.132;2023-11-19T14:52:15;11.20;99.90
7159;DHT22;63175;52.374;13.132;2023-11-19T14:54:42;11.20;99.90
7159;DHT22;63175;52.374;13.132;2023-11-19T14:57:08;11.20;99.90
7159;DHT22;63175;52.374;13.132;2023-11-19T14:59:37;11.10;99.90
7159;DHT22;63175;52.374;13.132;2023-11-19T15:02:04;11.10;99.90
7159;DHT22;63175;52.374;13.132;2023-11-19T15:04:31;11.10;99.90
7159;DHT22;63175;52.374;13.132;2023-11-19T15:06:59;11.10;99.90
7159;DHT22;63175;52.374;13.132;2023-11-19T15:09:26;11.10;99.90
7159;DHT22;63175;52.374;13.132;2023-11-19T15:11:53;11.10;99.90
7159;DHT22;63175;52.374;13.132;2023-11-19T15:14:20;11.10;99.90
7159;DHT22;63175;52.374;13.132;2023-11-19T15:16:48;11.10;99.90
7159;DHT22;63175;52.374;13.132;2023-11-19T15:19:16;11.10;99.90
7159;DHT22;63175;52.374;13.132;2023-11-19T15:21:45;11.10;99.90
7159;DHT22;63175;52.374;13.132;2023-11-19T15:24:12;11.10;99.90
7159;DHT22;63175;52.374;13.132;2023-11-19T15:26:39;11.10;99.90
7159;DHT22;63175;52.374;13.132;2023-11-19T15:29:06;11.10;99.90
7159;DHT22;63175;52.374;13.132;2023-11-19T15:31:32;11.00;99.90
7159;DHT22;63175;52.374;13.132;2023-11-19T15:34:01;11.00;99.90
7159;DHT22;63175;52.374;13.132;2023-11-19T15:36:28;11.00;99.90
7159;DHT22;63175;52.374;13.132;2023-11-19T15:38:55;11.00;99.90
7159;DHT22;63175;52.374;13.132;2023-11-19T15:41:22;11.00;99.90
7159;DHT22;63175;52.374;13.132;2023-11-19T15:43:49;11.00;99.90
7159;DHT22;63175;52.374;13.132;2023-11-19T15:46:16;11.00;99.90
7159;DHT22;63175;52.374;13.132;2023-11-19T15:48:43;11.00;99.90